createdAt,value
2022-08-28T00:01:03.128Z,72.95
2022-08-28T00:03:32.263Z,72.96
2022-08-28T00:06:00.991Z,72.45
2022-08-28T00:08:30.436Z,73.02
2022-08-28T00:10:58.719Z,73.30
2022-08-28T00:13:30.091Z,72.52
2022-08-28T00:16:01.738Z,72.79
2022-08-28T00:18:31.873Z,72.61
2022-08-28T00:21:01.625Z,73.09
2022-08-28T00:23:40.288Z,72.71
2022-08-28T00:26:32.494Z,73.12
2022-08-28T00:29:01.134Z,72.68
2022-08-28T00:31:29.377Z,73.12
2022-08-28T00:33:57.532Z,72.93
2022-08-28T00:36:26.094Z,73.14
2022-08-28T00:38:54.188Z,73.09
2022-08-28T00:41:24.931Z,73.13
2022-08-28T00:44:14.681Z,73.03
2022-08-28T00:46:45.472Z,73.60
2022-08-28T00:49:21.924Z,72.98
2022-08-28T00:52:08.160Z,73.44
2022-08-28T00:54:39.867Z,73.71
2022-08-28T00:57:14.801Z,73.30
2022-08-28T00:59:44.313Z,73.70
2022-08-28T01:02:17.219Z,74.27
2022-08-28T01:04:46.229Z,73.92
2022-08-28T01:07:15.579Z,73.88
2022-08-28T01:09:47.750Z,73.60
2022-08-28T01:12:20.973Z,73.69
2022-08-28T01:14:54.584Z,73.92
2022-08-28T01:17:25.335Z,74.00
2022-08-28T01:19:58.288Z,73.81
2022-08-28T01:22:38.186Z,74.46
2022-08-28T01:25:11.379Z,74.88
2022-08-28T01:27:41.895Z,74.43
2022-08-28T01:30:12.386Z,75.10
2022-08-28T01:32:44.237Z,75.07
2022-08-28T01:35:15.994Z,74.82
2022-08-28T01:37:44.437Z,75.26
2022-08-28T01:40:20.340Z,75.31
2022-08-28T01:42:48.549Z,75.46
2022-08-28T01:45:20.561Z,75.27
2022-08-28T01:47:51.363Z,75.70
2022-08-28T01:50:22.192Z,75.55
2022-08-28T01:52:50.401Z,75.77
2022-08-28T01:55:20.544Z,75.91
2022-08-28T01:57:54.999Z,75.56
2022-08-28T02:00:27.620Z,75.89
2022-08-28T02:02:58.222Z,76.39
2022-08-28T02:05:29.814Z,75.81
2022-08-28T02:07:58.880Z,76.21
2022-08-28T02:10:31.167Z,76.18
2022-08-28T02:13:00.896Z,76.74
2022-08-28T02:15:31.295Z,76.40
2022-08-28T02:18:00.867Z,76.03
2022-08-28T02:20:30.042Z,76.39
2022-08-28T02:22:59.471Z,76.27
2022-08-28T02:25:30.057Z,76.32
2022-08-28T02:27:58.855Z,76.28
2022-08-28T02:30:27.446Z,76.08
2022-08-28T02:32:55.674Z,76.05
2022-08-28T02:35:24.959Z,76.15
2022-08-28T02:37:55.519Z,76.41
2022-08-28T02:40:26.218Z,76.21
2022-08-28T02:42:55.718Z,76.59
2022-08-28T02:45:23.948Z,76.63
2022-08-28T02:47:54.127Z,76.52
2022-08-28T02:50:22.605Z,77.07
2022-08-28T02:52:51.550Z,76.58
2022-08-28T02:55:21.724Z,76.79
2022-08-28T02:57:50.216Z,77.28
2022-08-28T03:00:24.207Z,76.64
2022-08-28T03:02:53.639Z,76.99
2022-08-28T03:05:25.153Z,76.94
2022-08-28T03:07:54.697Z,77.50
2022-08-28T03:10:26.304Z,77.04
2022-08-28T03:12:54.453Z,77.48
2022-08-28T03:15:25.783Z,77.23
2022-08-28T03:17:54.677Z,77.42
2022-08-28T03:20:22.967Z,77.91
2022-08-28T03:23:08.567Z,77.49
2022-08-28T03:25:36.776Z,78.25
2022-08-28T03:28:05.235Z,77.66
2022-08-28T03:30:34.873Z,77.75
2022-08-28T03:33:03.216Z,78.35
2022-08-28T03:35:31.708Z,78.47
2022-08-28T03:37:59.986Z,78.28
2022-08-28T03:40:28.256Z,78.46
2022-08-28T03:42:56.673Z,78.56
2022-08-28T03:45:25.037Z,78.58
2022-08-28T03:47:55.236Z,78.73
2022-08-28T03:50:23.581Z,78.20
2022-08-28T03:52:52.849Z,78.72
2022-08-28T03:55:24.870Z,78.28
2022-08-28T03:57:53.169Z,78.42
2022-08-28T04:00:21.422Z,77.88
2022-08-28T04:02:49.465Z,78.18
2022-08-28T04:05:19.163Z,78.26
2022-08-28T04:07:47.426Z,78.83
2022-08-28T04:10:15.757Z,78.32
2022-08-28T04:12:44.681Z,78.91
2022-08-28T04:15:15.164Z,78.46
2022-08-28T04:17:43.336Z,78.60
2022-08-28T04:20:12.381Z,78.55
2022-08-28T04:22:41.876Z,78.25
2022-08-28T04:25:10.670Z,78.64
2022-08-28T04:27:38.903Z,78.24
2022-08-28T04:30:10.848Z,78.07
2022-08-28T04:32:40.041Z,77.89
2022-08-28T04:35:12.015Z,78.02
2022-08-28T04:37:43.745Z,78.24
2022-08-28T04:40:14.887Z,78.06
2022-08-28T04:42:44.957Z,78.07
2022-08-28T04:45:13.573Z,78.10
2022-08-28T04:47:41.719Z,78.50
2022-08-28T04:50:12.086Z,77.96
2022-08-28T04:52:43.179Z,77.91
2022-08-28T04:55:12.258Z,77.30
2022-08-28T04:57:40.391Z,77.46
2022-08-28T05:00:11.879Z,77.72
2022-08-28T05:02:40.040Z,77.69
2022-08-28T05:05:09.183Z,77.39
2022-08-28T05:07:37.294Z,77.83
2022-08-28T05:10:07.787Z,77.86
2022-08-28T05:12:37.335Z,77.73
2022-08-28T05:15:07.015Z,77.69
2022-08-28T05:17:35.238Z,77.96
2022-08-28T05:20:05.826Z,77.90
2022-08-28T05:22:34.347Z,77.82
2022-08-28T05:25:02.885Z,78.42
2022-08-28T05:27:32.357Z,78.28
2022-08-28T05:30:02.209Z,78.12
2022-08-28T05:32:30.553Z,77.54
2022-08-28T05:34:58.727Z,77.37
2022-08-28T05:37:27.681Z,76.88
2022-08-28T05:39:55.800Z,76.61
2022-08-28T05:42:23.974Z,76.97
2022-08-28T05:45:00.205Z,76.72
2022-08-28T05:47:32.625Z,76.88
2022-08-28T05:50:01.296Z,76.54
2022-08-28T05:52:29.857Z,76.50
2022-08-28T05:54:58.538Z,76.46
2022-08-28T05:57:26.628Z,75.64
2022-08-28T05:59:54.714Z,76.14
2022-08-28T06:02:24.228Z,75.78
2022-08-28T06:04:53.642Z,75.51
2022-08-28T06:07:22.099Z,75.21
2022-08-28T06:09:50.225Z,75.40
2022-08-28T06:12:18.358Z,75.52
2022-08-28T06:14:46.463Z,74.96
2022-08-28T06:17:15.092Z,75.26
2022-08-28T06:19:44.518Z,75.35
2022-08-28T06:22:14.783Z,75.11
2022-08-28T06:24:43.471Z,74.68
2022-08-28T06:27:11.594Z,74.67
2022-08-28T06:29:40.222Z,74.51
2022-08-28T06:32:09.047Z,74.55
2022-08-28T06:34:37.365Z,74.33
2022-08-28T06:37:07.935Z,74.39
2022-08-28T06:39:36.068Z,73.76
2022-08-28T06:42:05.436Z,73.84
2022-08-28T06:44:33.695Z,72.86
2022-08-28T06:47:03.055Z,72.39
2022-08-28T06:49:31.184Z,71.77
2022-08-28T06:51:59.935Z,71.02
2022-08-28T06:54:30.987Z,70.33
2022-08-28T06:56:59.169Z,69.98
2022-08-28T06:59:27.375Z,69.30
2022-08-28T07:01:55.713Z,68.66
2022-08-28T07:04:24.524Z,68.07
2022-08-28T07:06:54.483Z,67.49
2022-08-28T07:09:24.237Z,67.07
2022-08-28T07:11:54.002Z,66.86
2022-08-28T07:14:22.689Z,66.17
2022-08-28T07:16:53.895Z,65.84
2022-08-28T07:19:22.048Z,64.49
2022-08-28T07:21:50.188Z,64.34
2022-08-28T07:24:19.291Z,63.33
2022-08-28T07:26:50.053Z,62.79
2022-08-28T07:29:21.341Z,62.35
2022-08-28T07:31:53.400Z,62.29
2022-08-28T07:34:26.966Z,61.71
2022-08-28T07:36:56.210Z,60.99
2022-08-28T07:39:24.330Z,60.63
2022-08-28T07:41:52.454Z,59.73
2022-08-28T07:44:39.700Z,58.70
2022-08-28T07:47:11.643Z,57.66
2022-08-28T07:49:41.494Z,56.83
2022-08-28T07:52:11.937Z,56.19
2022-08-28T07:54:41.104Z,56.31
2022-08-28T07:57:17.630Z,55.36
2022-08-28T07:59:47.479Z,54.46
2022-08-28T08:02:16.724Z,53.91
2022-08-28T08:04:44.939Z,53.20
2022-08-28T08:07:17.817Z,53.13
2022-08-28T08:09:47.115Z,53.53
2022-08-28T08:12:18.303Z,54.01
2022-08-28T08:14:49.515Z,54.08
2022-08-28T08:17:17.699Z,54.05
2022-08-28T08:19:45.777Z,53.89
2022-08-28T08:22:14.112Z,54.00
2022-08-28T08:24:42.785Z,52.93
2022-08-28T08:27:11.520Z,52.37
2022-08-28T08:29:39.872Z,51.85
2022-08-28T08:32:12.225Z,50.77
2022-08-28T08:34:45.742Z,49.60
2022-08-28T08:37:14.438Z,49.52
2022-08-28T08:39:44.570Z,48.73
2022-08-28T08:42:25.031Z,48.71
2022-08-28T08:44:55.678Z,47.79
2022-08-28T08:47:37.370Z,47.71
2022-08-28T08:50:11.042Z,47.31
2022-08-28T08:52:51.421Z,47.62
2022-08-28T08:55:27.595Z,47.44
2022-08-28T08:58:04.733Z,46.73
2022-08-28T09:00:39.271Z,46.24
2022-08-28T09:03:15.498Z,45.94
2022-08-28T09:05:53.322Z,45.05
2022-08-28T09:08:32.274Z,45.09
2022-08-28T09:11:08.352Z,44.92
2022-08-28T09:13:49.593Z,44.66
2022-08-28T09:16:29.123Z,44.53
2022-08-28T09:19:01.662Z,45.22
2022-08-28T09:21:37.961Z,45.67
2022-08-28T09:24:13.570Z,46.61
2022-08-28T09:26:41.757Z,47.43
2022-08-28T09:29:28.829Z,48.37
2022-08-28T09:31:57.732Z,48.20
2022-08-28T09:34:36.705Z,48.24
2022-08-28T09:37:09.616Z,47.50
2022-08-28T09:39:45.553Z,47.19
2022-08-28T09:42:40.918Z,46.21
2022-08-28T09:45:18.705Z,45.40
2022-08-28T09:47:50.719Z,45.27
2022-08-28T09:50:33.065Z,45.71
2022-08-28T09:53:17.639Z,46.21
2022-08-28T09:56:12.225Z,47.08
2022-08-28T09:58:44.942Z,47.85
2022-08-28T10:01:45.000Z,48.50
2022-08-28T10:04:33.291Z,48.89
2022-08-28T10:07:08.110Z,48.45
2022-08-28T10:09:46.807Z,47.28
2022-08-28T10:12:34.603Z,46.78
2022-08-28T10:15:11.821Z,46.37
2022-08-28T10:18:01.661Z,46.52
2022-08-28T10:20:45.350Z,45.98
2022-08-28T10:23:24.696Z,45.26
2022-08-28T10:26:12.968Z,45.04
2022-08-28T10:28:53.278Z,44.31
2022-08-28T10:31:31.690Z,43.51
2022-08-28T10:34:16.601Z,43.72
2022-08-28T10:36:55.908Z,44.12
2022-08-28T10:39:38.809Z,44.06
2022-08-28T10:42:08.522Z,43.58
2022-08-28T10:44:45.673Z,44.10
2022-08-28T10:47:14.742Z,44.84
2022-08-28T10:49:45.761Z,44.62
2022-08-28T10:52:20.378Z,44.32
2022-08-28T10:54:55.376Z,43.86
2022-08-28T10:57:37.307Z,43.84
2022-08-28T11:00:14.285Z,44.08
2022-08-28T11:02:46.421Z,43.79
2022-08-28T11:05:15.759Z,43.13
2022-08-28T11:07:49.550Z,43.29
2022-08-28T11:10:43.888Z,41.99
2022-08-28T11:13:13.067Z,41.52
2022-08-28T11:15:54.352Z,41.15
2022-08-28T11:19:03.546Z,40.82
2022-08-28T11:21:37.969Z,40.90
2022-08-28T11:24:12.114Z,40.69
2022-08-28T11:26:59.106Z,39.93
2022-08-28T11:30:07.388Z,40.24
2022-08-28T11:32:59.831Z,40.61
2022-08-28T11:35:44.519Z,40.84
2022-08-28T11:38:16.445Z,40.72
2022-08-28T11:40:58.003Z,40.19
2022-08-28T11:43:37.421Z,41.12
2022-08-28T11:46:29.611Z,40.75
2022-08-28T11:49:00.728Z,39.30
2022-08-28T11:52:03.119Z,39.77
2022-08-28T11:54:48.351Z,39.76
2022-08-28T11:57:21.088Z,39.36
2022-08-28T12:00:10.501Z,38.92
2022-08-28T12:02:56.697Z,39.65
2022-08-28T12:05:51.760Z,40.67
2022-08-28T12:09:13.675Z,40.56
2022-08-28T12:12:01.440Z,39.84
2022-08-28T12:15:17.382Z,38.52
2022-08-28T12:17:50.260Z,37.96
2022-08-28T12:20:29.847Z,37.53
2022-08-28T12:23:00.818Z,37.35
2022-08-28T12:25:37.417Z,38.28
2022-08-28T12:28:20.110Z,37.76
2022-08-28T12:30:57.987Z,37.36
2022-08-28T12:33:36.263Z,37.35
2022-08-28T12:36:07.748Z,37.24
2022-08-28T12:38:36.266Z,35.24
2022-08-28T12:41:04.578Z,35.12
2022-08-28T12:43:41.603Z,35.07
2022-08-28T12:46:28.570Z,34.59
2022-08-28T12:48:59.693Z,33.65
2022-08-28T12:51:34.414Z,33.70
2022-08-28T12:54:06.357Z,32.88
2022-08-28T12:56:37.703Z,33.14
2022-08-28T12:59:27.156Z,34.06
2022-08-28T13:02:04.092Z,34.39
2022-08-28T13:04:36.292Z,33.86
2022-08-28T13:07:11.843Z,33.02
2022-08-28T13:09:48.611Z,32.08
2022-08-28T13:12:22.230Z,32.00
2022-08-28T13:15:00.307Z,32.83
2022-08-28T13:17:52.009Z,32.03
2022-08-28T13:20:29.464Z,32.54
2022-08-28T13:22:58.359Z,32.52
2022-08-28T13:25:29.996Z,32.85
2022-08-28T13:28:04.528Z,33.58
2022-08-28T13:30:35.447Z,32.79
2022-08-28T13:33:20.502Z,33.96
2022-08-28T13:35:48.777Z,34.33
2022-08-28T13:38:19.840Z,33.96
2022-08-28T13:40:59.815Z,34.59
2022-08-28T13:43:31.275Z,35.05
2022-08-28T13:45:59.478Z,36.21
2022-08-28T13:48:30.402Z,36.79
2022-08-28T13:51:05.029Z,35.82
2022-08-28T13:53:35.877Z,34.91
2022-08-28T13:56:05.052Z,35.56
2022-08-28T13:58:33.266Z,36.54
2022-08-28T14:01:02.070Z,37.07
2022-08-28T14:03:38.184Z,38.10
2022-08-28T14:06:11.896Z,38.54
2022-08-28T14:08:41.604Z,38.69
2022-08-28T14:11:12.435Z,38.48
2022-08-28T14:13:47.264Z,36.57
2022-08-28T14:16:24.811Z,36.06
2022-08-28T14:18:54.850Z,36.68
2022-08-28T14:21:24.431Z,37.87
2022-08-28T14:23:52.786Z,38.62
2022-08-28T14:26:20.910Z,38.87
2022-08-28T14:28:49.001Z,38.51
2022-08-28T14:31:17.270Z,38.51
2022-08-28T14:33:46.006Z,38.60
2022-08-28T14:36:18.102Z,39.19
2022-08-28T14:38:46.268Z,39.35
2022-08-28T14:41:15.262Z,40.53
2022-08-28T14:43:43.827Z,40.68
2022-08-28T14:46:16.772Z,40.93
2022-08-28T14:48:45.033Z,41.02
2022-08-28T14:51:13.421Z,39.96
2022-08-28T14:53:42.907Z,39.96
2022-08-28T14:56:12.393Z,39.69
2022-08-28T14:58:40.582Z,40.45
2022-08-28T15:01:08.808Z,40.16
2022-08-28T15:03:38.066Z,39.15
2022-08-28T15:06:10.254Z,38.75
2022-08-28T15:08:39.829Z,38.81
2022-08-28T15:11:14.293Z,39.42
2022-08-28T15:13:48.771Z,39.83
2022-08-28T15:16:20.096Z,40.00
2022-08-28T15:18:49.210Z,40.46
2022-08-28T15:21:18.743Z,40.95
2022-08-28T15:23:47.119Z,40.88
2022-08-28T15:26:16.541Z,41.75
2022-08-28T15:28:44.718Z,42.02
2022-08-28T15:31:13.211Z,42.45
2022-08-28T15:33:45.227Z,42.72
2022-08-28T15:36:13.946Z,42.96
2022-08-28T15:38:59.831Z,43.52
2022-08-28T15:41:30.509Z,43.59
2022-08-28T15:44:01.589Z,44.17
2022-08-28T15:46:33.526Z,44.27
2022-08-28T15:49:02.557Z,44.67
2022-08-28T15:51:32.271Z,41.85
2022-08-28T15:54:01.744Z,40.81
2022-08-28T15:56:31.323Z,41.25
2022-08-28T15:58:59.432Z,42.58
2022-08-28T16:01:27.680Z,40.77
2022-08-28T16:03:55.917Z,38.18
2022-08-28T16:06:24.238Z,38.17
2022-08-28T16:08:52.353Z,39.53
2022-08-28T16:11:23.020Z,40.23
2022-08-28T16:13:53.887Z,41.69
2022-08-28T16:16:22.630Z,42.32
2022-08-28T16:18:50.882Z,40.54
2022-08-28T16:21:19.846Z,40.35
2022-08-28T16:23:48.147Z,41.40
2022-08-28T16:26:16.715Z,43.12
2022-08-28T16:28:45.691Z,44.04
2022-08-28T16:31:19.114Z,44.16
2022-08-28T16:33:49.710Z,44.66
2022-08-28T16:36:19.475Z,45.63
2022-08-28T16:38:52.895Z,43.32
2022-08-28T16:41:29.220Z,40.51
2022-08-28T16:44:00.846Z,38.54
2022-08-28T16:46:30.772Z,36.26
2022-08-28T16:48:59.583Z,35.17
2022-08-28T16:51:29.407Z,34.25
2022-08-28T16:53:58.346Z,32.82
2022-08-28T16:56:26.721Z,32.81
2022-08-28T16:58:55.211Z,31.87
2022-08-28T17:01:24.537Z,31.37
2022-08-28T17:03:55.339Z,31.07
2022-08-28T17:06:27.043Z,30.35
2022-08-28T17:08:57.113Z,30.93
2022-08-28T17:11:27.646Z,30.40
2022-08-28T17:13:56.374Z,31.59
2022-08-28T17:16:26.702Z,31.15
2022-08-28T17:18:56.240Z,33.38
2022-08-28T17:21:42.443Z,35.28
2022-08-28T17:24:12.818Z,37.01
2022-08-28T17:26:42.405Z,38.28
2022-08-28T17:29:11.259Z,39.44
2022-08-28T17:31:39.695Z,40.58
2022-08-28T17:34:10.350Z,41.28
2022-08-28T17:36:42.113Z,42.44
2022-08-28T17:39:13.998Z,43.30
2022-08-28T17:41:42.554Z,44.28
2022-08-28T17:44:10.746Z,45.22
2022-08-28T17:46:39.540Z,45.79
2022-08-28T17:49:09.962Z,46.56
2022-08-28T17:51:43.617Z,46.91
2022-08-28T17:54:13.574Z,47.48
2022-08-28T17:56:41.933Z,47.74
2022-08-28T17:59:10.266Z,47.45
2022-08-28T18:01:39.012Z,47.31
2022-08-28T18:04:08.993Z,47.56
2022-08-28T18:06:37.458Z,47.54
2022-08-28T18:09:06.567Z,48.16
2022-08-28T18:11:35.482Z,48.16
2022-08-28T18:14:04.380Z,48.29
2022-08-28T18:16:33.764Z,47.86
2022-08-28T18:19:02.966Z,48.13
2022-08-28T18:21:32.643Z,48.37
2022-08-28T18:24:00.819Z,48.46
2022-08-28T18:26:29.434Z,48.02
2022-08-28T18:28:58.053Z,48.23
2022-08-28T18:31:26.649Z,48.76
2022-08-28T18:33:55.202Z,48.83
2022-08-28T18:36:24.173Z,49.07
2022-08-28T18:38:53.942Z,49.29
2022-08-28T18:41:26.971Z,49.37
2022-08-28T18:44:10.791Z,49.70
2022-08-28T18:46:38.997Z,50.08
2022-08-28T18:49:07.345Z,50.50
2022-08-28T18:51:35.635Z,50.66
2022-08-28T18:54:05.473Z,50.97
2022-08-28T18:56:36.044Z,51.85
2022-08-28T18:59:05.835Z,52.09
2022-08-28T19:01:34.122Z,52.20
2022-08-28T19:04:02.490Z,52.02
2022-08-28T19:06:30.652Z,52.27
2022-08-28T19:08:58.847Z,52.35
2022-08-28T19:11:31.290Z,52.31
2022-08-28T19:13:59.608Z,52.19
2022-08-28T19:16:33.437Z,52.22
2022-08-28T19:19:02.763Z,52.42
2022-08-28T19:21:31.201Z,51.95
2022-08-28T19:23:59.329Z,52.10
2022-08-28T19:26:29.596Z,51.37
2022-08-28T19:28:58.402Z,50.95
2022-08-28T19:31:28.118Z,50.22
2022-08-28T19:33:57.228Z,50.03
2022-08-28T19:36:27.090Z,49.67
2022-08-28T19:38:55.386Z,49.57
2022-08-28T19:41:24.245Z,49.61
2022-08-28T19:43:53.767Z,49.56
2022-08-28T19:46:22.278Z,49.76
2022-08-28T19:48:51.371Z,49.80
2022-08-28T19:51:22.928Z,50.18
2022-08-28T19:53:57.744Z,50.25
2022-08-28T19:56:28.057Z,50.54
2022-08-28T19:59:00.472Z,50.66
2022-08-28T20:01:30.432Z,50.96
2022-08-28T20:04:00.477Z,51.08
2022-08-28T20:06:31.831Z,50.95
2022-08-28T20:09:00.522Z,51.18
2022-08-28T20:11:30.364Z,51.18
2022-08-28T20:14:04.921Z,51.34
2022-08-28T20:16:35.706Z,51.03
2022-08-28T20:19:04.683Z,51.34
2022-08-28T20:21:37.768Z,51.25
2022-08-28T20:24:08.300Z,51.35
2022-08-28T20:26:36.683Z,51.53
2022-08-28T20:29:09.044Z,51.55
2022-08-28T20:31:40.325Z,51.29
2022-08-28T20:34:09.083Z,51.60
2022-08-28T20:36:37.653Z,51.73
2022-08-28T20:39:07.215Z,51.87
2022-08-28T20:41:37.968Z,52.15
2022-08-28T20:44:09.270Z,52.06
2022-08-28T20:46:41.315Z,52.17
2022-08-28T20:49:11.006Z,52.28
2022-08-28T20:51:56.518Z,52.27
2022-08-28T20:54:29.940Z,52.06
2022-08-28T20:57:01.811Z,52.27
2022-08-28T20:59:39.721Z,52.58
2022-08-28T21:02:11.231Z,52.67
2022-08-28T21:04:43.556Z,53.02
2022-08-28T21:07:12.798Z,53.19
2022-08-28T21:10:05.980Z,53.16
2022-08-28T21:12:29.686Z,53.68
2022-08-28T21:14:59.701Z,53.57
2022-08-28T21:17:29.891Z,53.93
2022-08-28T21:20:00.930Z,53.72
2022-08-28T21:22:31.701Z,54.55
2022-08-28T21:25:00.007Z,54.13
2022-08-28T21:27:28.384Z,54.44
2022-08-28T21:29:59.202Z,54.79
2022-08-28T21:32:28.319Z,55.14
2022-08-28T21:34:56.728Z,54.98
2022-08-28T21:37:25.221Z,55.50
2022-08-28T21:39:53.825Z,55.77
2022-08-28T21:42:25.033Z,55.91
2022-08-28T21:44:54.449Z,55.97
2022-08-28T21:47:25.211Z,56.01
2022-08-28T21:49:55.580Z,56.41
2022-08-28T21:52:28.773Z,55.62
2022-08-28T21:55:01.724Z,55.61
2022-08-28T21:57:31.018Z,55.98
2022-08-28T21:59:59.910Z,55.93
2022-08-28T22:02:29.926Z,56.29
2022-08-28T22:04:58.141Z,56.45
2022-08-28T22:07:26.314Z,56.79
2022-08-28T22:09:54.507Z,57.54
2022-08-28T22:12:24.595Z,57.45
2022-08-28T22:14:52.734Z,57.48
2022-08-28T22:17:21.302Z,57.39
2022-08-28T22:19:51.250Z,57.75
2022-08-28T22:22:36.895Z,57.11
2022-08-28T22:25:06.159Z,57.20
2022-08-28T22:27:34.615Z,57.04
2022-08-28T22:30:02.865Z,57.20
2022-08-28T22:32:31.005Z,56.92
2022-08-28T22:35:00.455Z,57.14
2022-08-28T22:37:28.644Z,57.18
2022-08-28T22:39:58.063Z,56.94
2022-08-28T22:42:26.541Z,56.92
2022-08-28T22:44:54.798Z,56.93
2022-08-28T22:47:23.307Z,57.02
2022-08-28T22:49:51.378Z,57.25
2022-08-28T22:52:21.079Z,57.21
2022-08-28T22:54:53.124Z,57.54
2022-08-28T22:57:21.723Z,57.34
2022-08-28T22:59:50.402Z,57.70
2022-08-28T23:02:21.629Z,57.94
2022-08-28T23:04:55.266Z,57.92
2022-08-28T23:07:24.720Z,58.10
2022-08-28T23:09:53.130Z,58.32
2022-08-28T23:12:21.452Z,58.46
2022-08-28T23:14:49.739Z,58.62
2022-08-28T23:17:18.707Z,58.41
2022-08-28T23:19:48.230Z,58.52
2022-08-28T23:22:17.483Z,58.51
2022-08-28T23:24:48.615Z,58.96
2022-08-28T23:27:35.865Z,58.72
2022-08-28T23:30:07.946Z,58.86
2022-08-28T23:32:36.061Z,58.92
2022-08-28T23:35:07.312Z,58.88
2022-08-28T23:37:37.512Z,59.06
2022-08-28T23:40:11.600Z,59.00
2022-08-28T23:42:40.669Z,59.23
2022-08-28T23:45:10.258Z,59.06
2022-08-28T23:47:40.191Z,59.19
2022-08-28T23:50:14.987Z,59.40
2022-08-28T23:52:44.277Z,59.58
2022-08-28T23:55:16.298Z,59.57
2022-08-28T23:57:45.816Z,59.57
